Time;durP1;ratioP1;P1;durP2;ratioP2;P2;SDS_P1;SDS_P2;PMS_P1;PMS_P2;Temp;Humidity;BMP_temperature;BMP_pressure;BME280_temperature;BME280_humidity;BME280_pressure;Samples;Min_cycle;Max_cycle;Signal;HPM_P1;HPM_P2
2022/01/21 00:01:27;;;;;;;30.83;9.90;;;0.20;99.90;;;;;;5044746;28;20431;-78
2022/01/21 00:03:55;;;;;;;32.40;10.52;;;0.20;99.90;;;;;;5045486;28;20049;-78
2022/01/21 00:06:22;;;;;;;30.52;9.82;;;0.20;99.90;;;;;;5060521;28;20090;-77
2022/01/21 00:08:53;;;;;;;30.00;9.57;;;0.10;99.90;;;;;;5034459;28;20053;-78
2022/01/21 00:11:22;;;;;;;29.13;10.82;;;0.20;99.90;;;;;;5019023;28;20071;-78
2022/01/21 00:13:49;;;;;;;28.48;9.85;;;0.20;99.90;;;;;;5023084;28;20515;-77
2022/01/21 00:16:20;;;;;;;30.77;8.85;;;0.20;99.90;;;;;;5035243;28;20057;-77
2022/01/21 00:18:59;;;;;;;27.10;8.82;;;0.30;99.90;;;;;;5047000;28;20056;-76
2022/01/21 00:30:11;;;;;;;31.55;9.43;;;0.20;99.90;;;;;;5062973;28;20079;-77
2022/01/21 00:32:39;;;;;;;26.83;8.65;;;0.20;99.90;;;;;;5043147;28;20060;-77
2022/01/21 00:35:07;;;;;;;30.27;10.23;;;0.20;99.90;;;;;;5023724;28;20049;-77
2022/01/21 00:37:34;;;;;;;27.98;10.32;;;0.10;99.90;;;;;;5024355;28;20254;-78
2022/01/21 00:40:02;;;;;;;30.73;10.52;;;0.20;99.90;;;;;;5041556;28;20051;-77
2022/01/21 00:42:49;;;;;;;39.00;10.13;;;0.20;99.90;;;;;;5018350;28;20064;-77
2022/01/21 00:45:17;;;;;;;29.75;10.70;;;0.20;99.90;;;;;;5057522;22;20056;-72
2022/01/21 00:47:45;;;;;;;30.15;9.68;;;0.10;99.90;;;;;;5030263;28;20108;-73
2022/01/21 00:50:13;;;;;;;33.72;10.02;;;0.10;99.90;;;;;;5053518;28;20036;-73
2022/01/21 00:52:41;;;;;;;29.30;11.07;;;0.10;99.90;;;;;;5061138;28;20790;-72
2022/01/21 00:55:10;;;;;;;27.92;9.68;;;0.10;99.90;;;;;;5043202;28;20076;-71
2022/01/21 00:57:37;;;;;;;31.83;10.80;;;0.10;99.90;;;;;;5060864;28;20506;-72
2022/01/21 01:00:06;;;;;;;22.17;9.38;;;0.10;99.90;;;;;;5060309;28;20052;-70
2022/01/21 01:02:33;;;;;;;29.60;9.85;;;0.20;99.90;;;;;;5043958;28;20057;-70
2022/01/21 01:05:00;;;;;;;28.88;8.60;;;0.10;99.90;;;;;;5030991;28;20414;-70
2022/01/21 01:07:28;;;;;;;35.97;9.55;;;0.10;99.90;;;;;;5007220;28;20130;-69
2022/01/21 01:09:57;;;;;;;27.30;8.98;;;0.10;99.90;;;;;;5030359;28;20054;-70
2022/01/21 01:20:48;;;;;;;32.40;8.75;;;0.20;99.90;;;;;;5027250;28;20053;-70
2022/01/21 01:23:26;;;;;;;26.20;9.93;;;0.20;99.90;;;;;;5042331;28;20076;-71
2022/01/21 01:28:39;;;;;;;30.92;9.50;;;0.20;99.90;;;;;;5042547;28;20079;-70
2022/01/21 01:31:06;;;;;;;28.33;9.60;;;0.10;99.90;;;;;;5023862;28;20665;-71
2022/01/21 01:33:39;;;;;;;26.17;10.48;;;0.20;99.90;;;;;;5006295;28;20112;-71
2022/01/21 01:36:08;;;;;;;34.97;10.60;;;0.30;99.90;;;;;;5040546;28;20044;-70
2022/01/21 01:41:25;;;;;;;37.22;11.65;;;0.20;99.90;;;;;;5036530;28;20063;-69
2022/01/21 01:49:38;;;;;;;34.90;11.23;;;0.20;99.90;;;;;;5041592;28;20554;-71
2022/01/21 01:52:08;;;;;;;38.47;9.82;;;0.10;99.90;;;;;;5039718;28;20045;-70
2022/01/21 01:54:41;;;;;;;32.22;11.23;;;0.10;99.90;;;;;;5021406;28;20057;-69
2022/01/21 01:57:08;;;;;;;35.90;12.20;;;0.10;99.90;;;;;;5041791;28;20048;-70
2022/01/21 01:59:35;;;;;;;36.55;10.57;;;0.10;99.90;;;;;;5042155;28;20445;-70
2022/01/21 02:02:05;;;;;;;36.20;11.85;;;0.00;99.90;;;;;;5059367;28;20063;-70
2022/01/21 02:04:33;;;;;;;36.13;12.32;;;0.10;99.90;;;;;;5043861;28;20123;-70
2022/01/21 02:07:02;;;;;;;38.78;12.25;;;0.20;99.90;;;;;;5048959;28;20048;-70
2022/01/21 02:09:29;;;;;;;33.35;10.98;;;0.10;99.90;;;;;;5010895;28;20049;-69
2022/01/21 02:11:56;;;;;;;41.20;12.52;;;0.20;99.90;;;;;;5007899;28;20040;-70
2022/01/21 02:14:31;;;;;;;31.85;11.00;;;0.00;99.90;;;;;;5057655;28;20052;-71
2022/01/21 02:22:23;;;;;;;27.15;9.57;;;0.10;99.90;;;;;;5053898;28;20052;-72
2022/01/21 02:24:57;;;;;;;36.55;10.02;;;0.10;99.90;;;;;;5024183;28;20059;-71
2022/01/21 02:27:25;;;;;;;28.85;10.75;;;0.00;99.90;;;;;;5039846;28;20105;-72
2022/01/21 02:29:55;;;;;;;32.03;9.68;;;0.10;99.90;;;;;;5040371;28;20135;-73
2022/01/21 02:32:22;;;;;;;33.50;10.30;;;0.00;99.90;;;;;;5039574;28;20060;-72
2022/01/21 02:34:49;;;;;;;36.08;10.98;;;0.00;99.90;;;;;;5059725;28;20052;-72
2022/01/21 02:37:18;;;;;;;27.10;9.57;;;-0.10;99.90;;;;;;5037191;28;20653;-72
2022/01/21 02:39:45;;;;;;;33.40;11.48;;;-0.10;99.90;;;;;;5040700;28;20130;-72
2022/01/21 02:42:13;;;;;;;26.92;9.30;;;-0.10;99.90;;;;;;5031521;28;20460;-72
2022/01/21 02:44:40;;;;;;;30.52;9.95;;;-0.10;99.90;;;;;;5007704;28;20591;-73
2022/01/21 02:47:08;;;;;;;28.30;11.27;;;-0.10;99.90;;;;;;5012055;28;20052;-71
2022/01/21 02:49:40;;;;;;;31.17;12.38;;;-0.10;99.90;;;;;;5035939;28;20075;-72
2022/01/21 02:52:08;;;;;;;39.08;12.63;;;-0.10;99.90;;;;;;5026817;28;20123;-71
2022/01/21 02:54:35;;;;;;;27.40;10.13;;;-0.10;99.90;;;;;;5043160;28;20485;-71
2022/01/21 02:57:07;;;;;;;40.95;13.57;;;-0.10;99.90;;;;;;5031288;28;20599;-71
2022/01/21 02:59:34;;;;;;;33.78;13.15;;;-0.10;99.90;;;;;;5042572;28;20041;-73
2022/01/21 03:02:02;;;;;;;37.67;14.50;;;-0.10;99.90;;;;;;5026473;28;20065;-72
2022/01/21 03:04:47;;;;;;;35.35;14.38;;;0.00;99.90;;;;;;5027674;28;20595;-71
2022/01/21 03:07:15;;;;;;;33.75;12.70;;;0.10;99.90;;;;;;5022728;28;20530;-72
2022/01/21 03:09:42;;;;;;;29.25;12.40;;;0.10;99.90;;;;;;5025773;28;20465;-71
2022/01/21 03:12:09;;;;;;;39.25;13.00;;;0.10;99.90;;;;;;5045357;28;20044;-72
2022/01/21 03:14:35;;;;;;;36.95;13.38;;;0.00;99.90;;;;;;5042367;28;20044;-71
2022/01/21 03:17:02;;;;;;;30.13;12.63;;;0.10;99.90;;;;;;5048040;28;20052;-70
2022/01/21 03:19:29;;;;;;;32.63;12.60;;;0.10;99.90;;;;;;5046092;28;20049;-73
2022/01/21 03:21:56;;;;;;;35.38;11.90;;;0.10;99.90;;;;;;5046045;28;20061;-70
2022/01/21 03:24:24;;;;;;;34.00;11.93;;;0.10;99.90;;;;;;5027553;28;20257;-71
2022/01/21 03:26:51;;;;;;;34.03;10.75;;;0.10;99.90;;;;;;5029132;28;20429;-71
2022/01/21 03:29:19;;;;;;;30.88;11.32;;;0.10;99.90;;;;;;5052402;28;20337;-70
2022/01/21 03:31:46;;;;;;;29.00;11.18;;;0.10;99.90;;;;;;5042003;28;20555;-70
2022/01/21 03:34:13;;;;;;;36.95;10.57;;;0.10;99.90;;;;;;5007415;28;20779;-70
2022/01/21 03:36:41;;;;;;;32.00;10.60;;;0.00;99.90;;;;;;5005868;28;20100;-71
2022/01/21 03:39:07;;;;;;;29.60;9.88;;;0.00;99.90;;;;;;5018698;28;20041;-73
2022/01/21 03:41:34;;;;;;;24.67;9.32;;;0.10;99.90;;;;;;5055660;28;20563;-70
2022/01/21 03:44:02;;;;;;;32.08;10.88;;;0.10;99.90;;;;;;5005933;28;20491;-72
2022/01/21 03:46:31;;;;;;;35.15;11.07;;;0.10;99.90;;;;;;5024934;28;20304;-72
2022/01/21 03:48:57;;;;;;;42.70;12.05;;;0.10;99.90;;;;;;5021751;28;20439;-72
2022/01/21 03:51:25;;;;;;;25.70;9.38;;;0.10;99.90;;;;;;5023822;28;20049;-72
2022/01/21 03:53:52;;;;;;;26.83;9.07;;;0.10;99.90;;;;;;5025848;28;20041;-72
2022/01/21 03:56:23;;;;;;;37.00;9.85;;;0.10;99.90;;;;;;5024683;28;20045;-70
2022/01/21 03:58:51;;;;;;;33.90;10.40;;;0.10;99.90;;;;;;5042623;28;20142;-72
2022/01/21 04:01:19;;;;;;;30.88;9.82;;;0.20;99.90;;;;;;5030293;28;20128;-71
2022/01/21 04:03:46;;;;;;;23.05;10.50;;;0.20;99.90;;;;;;5043167;28;20575;-70
2022/01/21 04:06:13;;;;;;;31.30;10.13;;;0.20;99.90;;;;;;5021186;28;20758;-70
2022/01/21 04:08:40;;;;;;;26.90;10.98;;;0.20;99.90;;;;;;5027646;28;20061;-70
2022/01/21 04:11:07;;;;;;;29.58;9.93;;;0.20;99.90;;;;;;5034661;28;20126;-71
2022/01/21 04:13:40;;;;;;;35.55;10.75;;;0.20;99.90;;;;;;5035092;28;20358;-71
2022/01/21 04:16:10;;;;;;;35.33;10.77;;;0.20;99.90;;;;;;5029667;28;20080;-69
2022/01/21 04:18:38;;;;;;;32.15;10.63;;;0.10;99.90;;;;;;5028356;28;20160;-71
2022/01/21 04:21:08;;;;;;;28.80;9.52;;;0.20;99.90;;;;;;5044108;28;20047;-71
2022/01/21 04:23:36;;;;;;;29.60;9.77;;;0.20;99.90;;;;;;5036143;28;20099;-70
2022/01/21 04:26:05;;;;;;;34.65;9.75;;;0.20;99.90;;;;;;5041200;28;20167;-70
2022/01/21 04:28:32;;;;;;;30.67;10.07;;;0.20;99.90;;;;;;5022514;28;20426;-72
2022/01/21 04:31:02;;;;;;;41.65;9.82;;;0.20;99.90;;;;;;5025466;28;20149;-72
2022/01/21 04:33:37;;;;;;;33.60;11.63;;;0.20;99.90;;;;;;5023590;28;20045;-72
2022/01/21 04:36:04;;;;;;;33.92;10.73;;;0.20;99.90;;;;;;5024740;28;20135;-73
2022/01/21 04:38:34;;;;;;;23.52;9.02;;;0.10;99.90;;;;;;5031054;28;20052;-71
2022/01/21 04:41:18;;;;;;;33.03;10.13;;;0.10;99.90;;;;;;5023773;28;20037;-72
2022/01/21 04:49:18;;;;;;;35.90;11.05;;;0.10;99.90;;;;;;5036159;28;20049;-72
2022/01/21 04:52:02;;;;;;;25.02;9.07;;;0.20;99.90;;;;;;5022970;28;20538;-72
2022/01/21 04:54:47;;;;;;;28.35;9.40;;;0.20;99.90;;;;;;5024476;28;20048;-72
2022/01/21 04:57:14;;;;;;;29.83;10.02;;;0.20;99.90;;;;;;5024349;28;20072;-73
2022/01/21 04:59:42;;;;;;;26.77;9.02;;;0.20;99.90;;;;;;5034733;28;20048;-72
2022/01/21 05:02:09;;;;;;;26.48;8.70;;;0.20;99.90;;;;;;5041840;28;20051;-72
2022/01/21 05:04:37;;;;;;;25.70;10.30;;;0.20;99.90;;;;;;5023882;28;20530;-72
2022/01/21 05:07:07;;;;;;;31.02;9.68;;;0.20;99.90;;;;;;5023144;28;20106;-72
2022/01/21 05:09:35;;;;;;;26.27;9.57;;;0.20;99.90;;;;;;5007199;28;20053;-71
2022/01/21 05:12:09;;;;;;;32.95;9.88;;;0.20;99.90;;;;;;5025576;28;20586;-72
2022/01/21 05:14:52;;;;;;;24.75;9.77;;;0.20;99.90;;;;;;5043917;28;20051;-73
2022/01/21 05:17:25;;;;;;;32.15;9.98;;;0.30;99.90;;;;;;5021435;28;20049;-72
2022/01/21 05:19:53;;;;;;;37.35;9.57;;;0.20;99.90;;;;;;5017827;28;20052;-72
2022/01/21 05:22:46;;;;;;;30.52;9.75;;;0.20;99.90;;;;;;5033927;28;20041;-73
2022/01/21 05:25:17;;;;;;;31.35;9.57;;;0.20;99.90;;;;;;5004845;28;20518;-72
2022/01/21 05:27:48;;;;;;;37.25;10.43;;;0.30;99.90;;;;;;5026639;28;20098;-72
2022/01/21 05:30:16;;;;;;;43.33;10.18;;;0.20;99.90;;;;;;5007757;28;20326;-71
2022/01/21 05:33:02;;;;;;;33.40;10.30;;;0.30;99.90;;;;;;5031083;28;20060;-72
2022/01/21 05:35:52;;;;;;;35.00;9.60;;;0.30;99.90;;;;;;5034489;28;20084;-71
2022/01/21 05:38:51;;;;;;;31.20;9.13;;;0.30;99.90;;;;;;5034091;28;20106;-72
2022/01/21 05:41:34;;;;;;;29.48;10.15;;;0.30;99.90;;;;;;5026980;28;20048;-72
2022/01/21 05:46:23;;;;;;;35.95;10.27;;;0.20;99.90;;;;;;5022131;28;20153;-72
2022/01/21 05:47:28;;;;;;;34.38;10.25;;;0.20;99.90;;;;;;5028936;28;20515;-71
2022/01/21 05:50:15;;;;;;;42.53;14.98;;;0.20;99.90;;;;;;4998325;28;20049;-72
2022/01/21 05:53:14;;;;;;;30.65;11.20;;;0.20;99.90;;;;;;5000955;28;20052;-71
2022/01/21 05:56:07;;;;;;;37.25;12.25;;;0.20;99.90;;;;;;5023021;28;20422;-72
2022/01/21 05:58:45;;;;;;;38.50;12.70;;;0.20;99.90;;;;;;5041472;28;20450;-72
2022/01/21 06:01:11;;;;;;;36.50;12.10;;;0.20;99.90;;;;;;5034724;28;20100;-72
2022/01/21 06:03:38;;;;;;;34.60;13.30;;;0.20;99.90;;;;;;5047685;28;20037;-72
2022/01/21 06:06:06;;;;;;;37.15;12.18;;;0.20;99.90;;;;;;5022560;28;20056;-72
2022/01/21 06:08:34;;;;;;;37.50;12.70;;;0.20;99.90;;;;;;5030193;28;20401;-71
2022/01/21 06:11:09;;;;;;;41.70;12.80;;;0.20;99.90;;;;;;5035613;28;20103;-72
2022/01/21 06:13:37;;;;;;;41.08;14.77;;;0.10;99.90;;;;;;5040683;28;20061;-72
2022/01/21 06:16:04;;;;;;;51.30;14.57;;;0.10;99.90;;;;;;5026498;28;20048;-72
2022/01/21 06:18:31;;;;;;;45.17;16.15;;;0.20;99.90;;;;;;5032426;28;20039;-72
2022/01/21 06:20:58;;;;;;;41.55;15.38;;;0.10;99.90;;;;;;5052569;28;20072;-72
2022/01/21 06:23:26;;;;;;;30.58;12.50;;;0.10;99.90;;;;;;5050147;28;20574;-72
2022/01/21 06:25:53;;;;;;;36.63;13.63;;;0.20;99.90;;;;;;5061197;28;20137;-71
2022/01/21 06:28:21;;;;;;;43.72;14.65;;;0.20;99.90;;;;;;5061031;28;20098;-72
2022/01/21 06:30:49;;;;;;;48.45;15.20;;;0.20;99.90;;;;;;5058813;28;20773;-72
2022/01/21 06:33:16;;;;;;;51.50;15.68;;;0.10;99.90;;;;;;5044415;28;20510;-72
2022/01/21 06:35:42;;;;;;;53.08;17.20;;;0.10;99.90;;;;;;5063254;28;20052;-71
2022/01/21 06:38:09;;;;;;;43.13;15.90;;;0.20;99.90;;;;;;5052204;28;20045;-71
2022/01/21 06:40:36;;;;;;;50.47;15.90;;;0.20;99.90;;;;;;5026031;28;20499;-70
2022/01/21 06:43:06;;;;;;;56.05;16.20;;;0.20;99.90;;;;;;5041727;28;20079;-70
2022/01/21 06:45:33;;;;;;;50.30;17.50;;;0.30;99.90;;;;;;5072041;22;20048;-78
2022/01/21 06:48:02;;;;;;;46.75;15.68;;;0.30;99.90;;;;;;5033040;28;20048;-76
2022/01/21 06:50:30;;;;;;;54.60;17.00;;;0.30;99.90;;;;;;5058115;28;20048;-76
2022/01/21 06:52:59;;;;;;;56.00;16.90;;;0.30;99.90;;;;;;5039839;28;20493;-75
2022/01/21 06:55:26;;;;;;;59.53;16.85;;;0.30;99.90;;;;;;5057290;28;20063;-76
2022/01/21 06:57:53;;;;;;;59.60;17.20;;;0.30;99.90;;;;;;5037512;28;20048;-76
2022/01/21 07:00:20;;;;;;;60.75;17.27;;;0.30;99.90;;;;;;5039309;28;20216;-76
2022/01/21 07:02:49;;;;;;;64.90;20.10;;;0.30;99.90;;;;;;5038855;28;20072;-76
2022/01/21 07:05:16;;;;;;;74.05;20.23;;;0.30;99.90;;;;;;5039072;28;20060;-76
2022/01/21 07:07:44;;;;;;;54.88;17.95;;;0.40;99.90;;;;;;5038255;28;20434;-76
2022/01/21 07:10:13;;;;;;;66.50;20.95;;;0.40;99.90;;;;;;5021806;28;20539;-75
2022/01/21 07:12:44;;;;;;;63.10;18.77;;;0.40;99.90;;;;;;5037859;28;20174;-76
2022/01/21 07:15:15;;;;;;;58.33;17.77;;;0.40;99.90;;;;;;5038375;28;20056;-76
2022/01/21 07:17:43;;;;;;;71.22;19.13;;;0.40;99.90;;;;;;5037156;28;20041;-75
2022/01/21 07:20:10;;;;;;;56.83;19.60;;;0.40;99.90;;;;;;5034113;28;20317;-76
2022/01/21 07:22:38;;;;;;;60.67;18.30;;;0.30;99.90;;;;;;5034487;28;20048;-76
2022/01/21 07:25:06;;;;;;;62.42;17.20;;;0.40;99.90;;;;;;5029962;28;20586;-76
2022/01/21 07:27:33;;;;;;;66.53;19.08;;;0.40;99.90;;;;;;5049877;28;20040;-76
2022/01/21 07:30:00;;;;;;;66.68;18.00;;;0.40;99.90;;;;;;5035823;28;20554;-76
2022/01/21 07:32:27;;;;;;;67.45;18.73;;;0.50;99.90;;;;;;5037528;28;20140;-76
2022/01/21 07:34:54;;;;;;;51.33;17.63;;;0.50;99.90;;;;;;5036507;28;20382;-76
2022/01/21 07:37:21;;;;;;;48.88;17.48;;;0.50;99.90;;;;;;5020523;28;20045;-76
2022/01/21 07:39:48;;;;;;;51.20;17.25;;;0.50;99.90;;;;;;5049024;28;20052;-75
2022/01/21 07:42:15;;;;;;;36.78;14.35;;;0.50;99.90;;;;;;5058686;28;20036;-76
2022/01/21 07:44:42;;;;;;;43.10;17.27;;;0.40;99.90;;;;;;5054394;28;20048;-76
2022/01/21 07:47:09;;;;;;;40.08;15.90;;;0.50;99.90;;;;;;5048204;28;20048;-76
2022/01/21 07:49:36;;;;;;;40.08;16.38;;;0.60;99.90;;;;;;5051406;28;20047;-76
2022/01/21 07:52:03;;;;;;;54.60;19.90;;;0.60;99.90;;;;;;5054625;28;20053;-76
2022/01/21 07:54:30;;;;;;;43.67;18.05;;;0.50;99.90;;;;;;5037755;28;20068;-75
2022/01/21 07:56:57;;;;;;;198.77;32.45;;;0.60;99.90;;;;;;5039007;28;20063;-77
2022/01/21 07:59:24;;;;;;;52.38;18.27;;;0.60;99.90;;;;;;5021418;28;20052;-76
2022/01/21 08:01:51;;;;;;;42.25;17.80;;;0.60;99.90;;;;;;5037092;28;20040;-76
2022/01/21 08:04:18;;;;;;;49.50;19.15;;;0.60;99.90;;;;;;5055208;28;20470;-76
2022/01/21 08:06:44;;;;;;;49.42;18.65;;;0.60;99.90;;;;;;5055685;28;20468;-77
2022/01/21 08:09:11;;;;;;;59.65;19.40;;;0.60;99.90;;;;;;5038507;28;20052;-77
2022/01/21 08:11:38;;;;;;;53.97;19.33;;;0.60;99.90;;;;;;5018738;28;20052;-77
2022/01/21 08:14:05;;;;;;;46.42;20.10;;;0.60;99.90;;;;;;5055618;28;20653;-77
2022/01/21 08:16:35;;;;;;;57.13;19.42;;;0.70;99.90;;;;;;5054409;28;20052;-77
2022/01/21 08:19:03;;;;;;;49.20;18.52;;;0.70;99.90;;;;;;5020963;28;20056;-78
2022/01/21 08:21:30;;;;;;;51.45;17.42;;;0.70;99.90;;;;;;5037600;28;20052;-77
2022/01/21 08:23:57;;;;;;;37.60;15.32;;;0.70;99.90;;;;;;5018448;28;20122;-79
2022/01/21 08:26:30;;;;;;;36.60;14.93;;;0.70;99.90;;;;;;5059498;28;20048;-77
2022/01/21 08:28:57;;;;;;;34.95;15.10;;;0.70;99.90;;;;;;5035715;28;20450;-78
2022/01/21 08:31:24;;;;;;;31.27;16.20;;;0.70;99.90;;;;;;5037593;28;20041;-78
2022/01/21 08:33:52;;;;;;;33.05;13.52;;;0.80;99.90;;;;;;5020852;28;20055;-77
2022/01/21 08:36:24;;;;;;;71.22;18.02;;;0.80;99.90;;;;;;5055355;28;20075;-77
2022/01/21 08:38:51;;;;;;;28.02;12.18;;;0.80;99.90;;;;;;5036829;28;20151;-76
2022/01/21 08:41:19;;;;;;;23.83;11.55;;;0.70;99.90;;;;;;5053479;28;20032;-79
2022/01/21 08:43:46;;;;;;;44.28;14.35;;;0.70;99.90;;;;;;5036733;28;20057;-77
2022/01/21 08:46:14;;;;;;;20.58;11.55;;;0.80;99.90;;;;;;5058222;28;20400;-77
2022/01/21 08:48:40;;;;;;;28.80;12.20;;;0.80;99.90;;;;;;5055986;28;20059;-78
2022/01/21 08:51:12;;;;;;;30.17;12.27;;;0.80;99.90;;;;;;5074289;28;20325;-77
2022/01/21 08:53:41;;;;;;;36.90;14.48;;;0.80;99.90;;;;;;5054537;28;20233;-77
2022/01/21 08:56:13;;;;;;;46.30;15.73;;;0.80;99.90;;;;;;5052512;28;20555;-80
2022/01/21 08:58:41;;;;;;;52.33;15.15;;;0.80;99.90;;;;;;5034249;28;20052;-77
2022/01/21 09:01:09;;;;;;;71.75;16.75;;;0.80;99.90;;;;;;5054529;28;20045;-79
2022/01/21 09:03:39;;;;;;;82.20;19.98;;;0.80;99.90;;;;;;5036568;28;20045;-78
2022/01/21 09:06:06;;;;;;;49.63;16.38;;;0.80;99.90;;;;;;5054341;28;20135;-77
2022/01/21 09:08:33;;;;;;;47.13;17.27;;;0.80;99.90;;;;;;5036414;28;20477;-78
2022/01/21 09:11:03;;;;;;;34.25;14.88;;;0.80;99.90;;;;;;5053594;28;20059;-79
2022/01/21 09:13:32;;;;;;;24.23;10.55;;;0.70;99.90;;;;;;5039171;28;20147;-80
2022/01/21 09:16:01;;;;;;;21.98;11.00;;;0.80;99.90;;;;;;5039548;28;20202;-79
2022/01/21 09:18:44;;;;;;;21.70;10.68;;;0.80;99.90;;;;;;5038445;28;20049;-78
2022/01/21 09:21:29;;;;;;;18.83;10.48;;;0.80;99.90;;;;;;5037220;28;20064;-78
2022/01/21 09:23:56;;;;;;;22.88;11.18;;;0.90;99.90;;;;;;5037626;28;20041;-79
2022/01/21 09:26:24;;;;;;;68.65;16.35;;;0.90;99.90;;;;;;5056267;28;20052;-78
2022/01/21 09:28:56;;;;;;;38.50;16.48;;;0.90;99.90;;;;;;5038842;28;20084;-78
2022/01/21 09:31:25;;;;;;;36.22;16.10;;;0.90;99.90;;;;;;5038252;28;20391;-78
2022/01/21 09:34:13;;;;;;;82.13;23.05;;;1.00;99.90;;;;;;5041741;28;20055;-78
2022/01/21 09:36:40;;;;;;;40.65;19.13;;;1.00;99.90;;;;;;5038888;28;20488;-77
2022/01/21 09:39:06;;;;;;;61.03;20.75;;;0.90;99.90;;;;;;5051282;28;20048;-79
2022/01/21 09:41:34;;;;;;;99.68;22.13;;;1.00;99.90;;;;;;5036844;28;20048;-78
2022/01/21 09:44:04;;;;;;;81.07;21.13;;;1.00;99.90;;;;;;5039648;28;20044;-78
2022/01/21 09:46:36;;;;;;;64.05;20.45;;;0.90;99.90;;;;;;5036425;28;20040;-78
2022/01/21 09:49:25;;;;;;;47.35;17.95;;;1.00;99.90;;;;;;5037717;28;20467;-79
2022/01/21 09:52:14;;;;;;;57.08;18.65;;;1.00;99.90;;;;;;5023384;28;20419;-79
2022/01/21 09:54:45;;;;;;;33.67;16.92;;;1.00;99.90;;;;;;5017762;28;20053;-79
2022/01/21 09:57:20;;;;;;;67.53;18.52;;;1.10;99.90;;;;;;5017660;28;20056;-79
2022/01/21 09:59:48;;;;;;;45.07;17.07;;;1.10;99.90;;;;;;5017109;28;20452;-77
2022/01/21 10:02:19;;;;;;;59.88;16.98;;;1.10;99.90;;;;;;5037665;28;20033;-78
2022/01/21 10:04:49;;;;;;;48.83;17.58;;;1.00;99.90;;;;;;5022150;28;20106;-78
2022/01/21 10:07:19;;;;;;;53.33;17.00;;;1.10;99.90;;;;;;5035912;28;20048;-78
2022/01/21 10:09:50;;;;;;;35.33;15.57;;;1.10;99.90;;;;;;5043587;28;20048;-78
2022/01/21 10:12:17;;;;;;;43.53;17.02;;;1.10;99.90;;;;;;5059339;28;20527;-79
2022/01/21 10:14:45;;;;;;;50.13;18.85;;;1.10;99.90;;;;;;5042064;28;20044;-81
2022/01/21 10:17:13;;;;;;;36.10;16.60;;;1.10;99.90;;;;;;5041119;28;20079;-80
2022/01/21 10:19:41;;;;;;;57.28;17.83;;;1.20;99.90;;;;;;5039980;28;20114;-80
2022/01/21 10:22:18;;;;;;;45.83;15.63;;;1.20;99.90;;;;;;5059543;28;20528;-81
2022/01/21 10:24:58;;;;;;;35.08;14.55;;;1.20;99.90;;;;;;5041531;28;20295;-80
2022/01/21 10:27:35;;;;;;;39.88;13.18;;;1.20;99.90;;;;;;5041301;28;20044;-83
2022/01/21 10:30:17;;;;;;;33.72;13.65;;;1.20;99.90;;;;;;5060454;28;20052;-82
2022/01/21 10:32:44;;;;;;;35.65;14.88;;;1.20;99.90;;;;;;5042414;28;20310;-80
2022/01/21 10:35:34;;;;;;;32.58;13.93;;;1.30;99.90;;;;;;5058988;28;20059;-82
2022/01/21 10:38:37;;;;;;;35.22;14.18;;;1.30;99.90;;;;;;5038606;28;20478;-81
2022/01/21 10:41:10;;;;;;;34.63;12.57;;;1.30;99.90;;;;;;5043037;28;20037;-82
2022/01/21 10:43:37;;;;;;;23.08;10.32;;;1.30;99.90;;;;;;5040698;28;20109;-81
2022/01/21 10:46:15;;;;;;;22.92;9.48;;;1.30;99.90;;;;;;5045989;28;20047;-81
2022/01/21 10:48:57;;;;;;;16.05;9.10;;;1.40;99.90;;;;;;5061473;28;20048;-82
2022/01/21 10:51:36;;;;;;;17.13;8.35;;;1.40;99.90;;;;;;5065956;28;20239;-82
2022/01/21 10:54:21;;;;;;;15.20;8.70;;;1.30;99.90;;;;;;5050567;28;20048;-82
2022/01/21 10:57:14;;;;;;;21.83;9.77;;;1.30;99.90;;;;;;5045329;28;20045;-83
2022/01/21 10:59:49;;;;;;;19.02;10.38;;;1.30;99.90;;;;;;5028298;28;20059;-84
2022/01/21 11:02:28;;;;;;;21.80;10.15;;;1.30;99.90;;;;;;5028279;28;20055;-83
2022/01/21 11:04:57;;;;;;;20.38;9.00;;;1.40;99.90;;;;;;5045888;28;20052;-81
2022/01/21 11:07:44;;;;;;;16.13;9.65;;;1.40;99.90;;;;;;5044300;28;20053;-81
2022/01/21 11:10:34;;;;;;;26.48;11.15;;;1.40;99.90;;;;;;5058449;28;20400;-83
2022/01/21 11:13:21;;;;;;;25.02;10.90;;;1.50;99.90;;;;;;5040320;28;20052;-85
2022/01/21 11:15:54;;;;;;;21.95;10.48;;;1.50;99.90;;;;;;5036105;28;20055;-86
2022/01/21 11:19:06;;;;;;;28.13;11.70;;;1.50;99.90;;;;;;5045105;28;20067;-84
2022/01/21 11:21:47;;;;;;;33.15;11.18;;;1.60;99.90;;;;;;5044778;28;20074;-83
2022/01/21 11:24:16;;;;;;;25.15;12.48;;;1.60;99.90;;;;;;5045804;28;20044;-81
2022/01/21 11:26:44;;;;;;;33.90;12.48;;;1.60;99.90;;;;;;5044264;28;20037;-81
2022/01/21 11:29:11;;;;;;;30.13;13.60;;;1.70;99.90;;;;;;5062416;28;20143;-79
2022/01/21 11:31:38;;;;;;;25.20;12.30;;;1.70;99.90;;;;;;5049137;28;20083;-79
2022/01/21 11:34:11;;;;;;;35.63;12.75;;;1.60;99.90;;;;;;5034550;28;20052;-79
2022/01/21 11:36:37;;;;;;;32.65;14.57;;;1.70;99.90;;;;;;5024768;28;20056;-79
2022/01/21 11:39:05;;;;;;;32.22;13.50;;;1.70;99.90;;;;;;5035857;28;20080;-80
2022/01/21 11:41:35;;;;;;;37.50;13.07;;;1.70;99.90;;;;;;5024521;28;20040;-77
2022/01/21 11:44:04;;;;;;;24.13;11.63;;;1.70;99.90;;;;;;5040472;28;20524;-79
2022/01/21 11:49:10;;;;;;;37.80;14.57;;;1.70;99.90;;;;;;5037793;28;20057;-76
2022/01/21 11:51:40;;;;;;;31.70;13.88;;;1.80;99.90;;;;;;5021783;28;20048;-75
2022/01/21 11:54:10;;;;;;;40.85;13.48;;;1.80;99.90;;;;;;5020754;28;20053;-76
2022/01/21 11:57:00;;;;;;;25.15;13.00;;;1.80;99.90;;;;;;5036337;28;20063;-75
2022/01/21 12:02:20;;;;;;;38.90;14.50;;;1.90;99.90;;;;;;5057310;28;20044;-76
2022/01/21 12:05:03;;;;;;;36.45;14.18;;;1.90;99.90;;;;;;5056978;28;20106;-77
2022/01/21 12:07:44;;;;;;;28.02;12.98;;;2.00;99.90;;;;;;5037895;28;20376;-76
2022/01/21 12:10:21;;;;;;;29.88;12.63;;;1.90;99.90;;;;;;5035859;28;20045;-77
2022/01/21 12:13:11;;;;;;;28.38;12.88;;;1.90;99.90;;;;;;5036357;28;20059;-75
2022/01/21 12:21:25;;;;;;;23.30;10.93;;;2.00;99.90;;;;;;4993482;28;20056;-77
2022/01/21 12:23:59;;;;;;;23.05;11.57;;;2.00;99.90;;;;;;5055064;28;20525;-77
2022/01/21 12:26:27;;;;;;;35.03;11.88;;;2.00;99.90;;;;;;5037593;28;20052;-79
2022/01/21 12:28:54;;;;;;;27.08;11.95;;;2.10;99.90;;;;;;5037901;28;20338;-76
2022/01/21 12:31:22;;;;;;;36.28;12.43;;;2.10;99.90;;;;;;5034638;28;20078;-76
2022/01/21 12:34:12;;;;;;;37.15;11.90;;;2.10;99.90;;;;;;5042063;28;20068;-80
2022/01/21 12:36:54;;;;;;;28.40;11.63;;;2.20;99.90;;;;;;5023724;28;20493;-76
2022/01/21 12:39:48;;;;;;;24.63;10.60;;;2.20;99.90;;;;;;5034792;28;20049;-79
2022/01/21 12:42:21;;;;;;;19.40;9.40;;;2.20;99.90;;;;;;5039921;28;20371;-76
2022/01/21 12:44:50;;;;;;;39.05;13.57;;;2.10;99.90;;;;;;5023645;28;20171;-80
2022/01/21 12:47:34;;;;;;;24.52;10.93;;;2.20;99.90;;;;;;5068305;22;20041;-73
2022/01/21 12:50:41;;;;;;;28.58;10.93;;;2.20;99.90;;;;;;5060494;28;20157;-73
2022/01/21 12:53:25;;;;;;;23.13;10.55;;;2.20;99.90;;;;;;5059439;28;20051;-73
2022/01/21 12:56:03;;;;;;;31.33;9.65;;;2.20;99.90;;;;;;5040831;28;20094;-73
2022/01/21 12:58:37;;;;;;;24.60;10.25;;;2.20;99.90;;;;;;5006198;28;20049;-72
2022/01/21 13:01:09;;;;;;;27.33;9.70;;;2.20;99.90;;;;;;5023611;28;20073;-72
2022/01/21 13:04:06;;;;;;;24.88;9.65;;;2.20;99.90;;;;;;5040288;28;20057;-72
2022/01/21 13:06:58;;;;;;;35.67;12.10;;;2.20;99.90;;;;;;5002992;28;20107;-72
2022/01/21 13:10:01;;;;;;;20.83;9.90;;;2.30;99.90;;;;;;5031473;28;20393;-72
2022/01/21 13:12:46;;;;;;;29.75;8.68;;;2.40;99.90;;;;;;5029743;28;20574;-72
2022/01/21 13:15:13;;;;;;;30.75;10.02;;;2.40;99.90;;;;;;5040277;28;20462;-71
2022/01/21 13:17:40;;;;;;;23.98;10.77;;;2.40;99.90;;;;;;5038505;28;20045;-72
2022/01/21 13:20:07;;;;;;;288.25;35.45;;;2.40;99.90;;;;;;5040263;28;20698;-71
2022/01/21 13:22:37;;;;;;;26.60;8.85;;;2.40;99.90;;;;;;5022116;28;20229;-71
2022/01/21 13:25:09;;;;;;;22.13;9.90;;;2.40;99.90;;;;;;5040511;28;20563;-70
2022/01/21 13:27:47;;;;;;;21.38;8.40;;;2.40;99.90;;;;;;5039262;28;20096;-72
2022/01/21 13:30:17;;;;;;;25.73;8.65;;;2.40;99.90;;;;;;5038939;28;20087;-72
2022/01/21 13:32:44;;;;;;;25.73;8.05;;;2.50;99.90;;;;;;5040402;28;20154;-72
2022/01/21 13:35:23;;;;;;;20.85;8.77;;;2.40;99.90;;;;;;5021070;28;20036;-72
2022/01/21 13:38:09;;;;;;;23.77;8.20;;;2.50;99.90;;;;;;5021429;28;20091;-72
2022/01/21 13:40:45;;;;;;;25.52;7.75;;;2.40;99.90;;;;;;5003924;28;20122;-72
2022/01/21 13:43:34;;;;;;;;;;;2.50;99.90;;;;;;5037440;28;20139;-72
2022/01/21 13:46:04;;;;;;;29.02;8.40;;;2.50;99.90;;;;;;5044631;28;20011;-71
2022/01/21 13:48:34;;;;;;;22.38;8.35;;;2.50;99.90;;;;;;5005203;28;20049;-71
2022/01/21 13:51:05;;;;;;;21.60;7.80;;;2.50;99.90;;;;;;5020902;28;20072;-72
2022/01/21 13:53:40;;;;;;;28.88;10.77;;;2.50;99.90;;;;;;5024060;28;20113;-71